createdAt,value
2023-04-02T00:01:44.311Z,13.60
2023-04-02T00:04:22.398Z,13.70
2023-04-02T00:07:30.313Z,11.40
2023-04-02T00:09:59.889Z,12.90
2023-04-02T00:12:30.815Z,12.30
2023-04-02T00:14:59.868Z,13.40
2023-04-02T00:17:28.727Z,13.10
2023-04-02T00:20:01.908Z,10.40
2023-04-02T00:22:33.686Z,11.00
2023-04-02T00:25:11.121Z,10.90
2023-04-02T00:27:41.190Z,10.60
2023-04-02T00:30:13.714Z,10.60
2023-04-02T00:32:43.448Z,13.00
2023-04-02T00:35:17.580Z,12.70
2023-04-02T00:37:48.034Z,11.20
2023-04-02T00:40:24.027Z,10.20
2023-04-02T00:42:54.976Z,10.50
2023-04-02T00:45:28.481Z,11.70
2023-04-02T00:48:14.520Z,11.40
2023-04-02T00:50:46.745Z,10.10
2023-04-02T00:53:22.718Z,10.30
2023-04-02T00:55:52.784Z,10.40
2023-04-02T00:58:28.094Z,11.40
2023-04-02T01:00:59.012Z,10.50
2023-04-02T01:03:38.103Z,11.20
2023-04-02T01:06:12.133Z,11.20
2023-04-02T01:09:01.221Z,12.20
2023-04-02T01:11:45.379Z,10.60
2023-04-02T01:14:25.492Z,11.60
2023-04-02T01:17:03.104Z,12.20
2023-04-02T01:20:07.962Z,13.50
2023-04-02T01:22:47.577Z,12.30
2023-04-02T01:25:19.092Z,10.60
2023-04-02T01:27:54.519Z,12.20
2023-04-02T01:30:23.811Z,13.20
2023-04-02T01:32:54.756Z,13.80
2023-04-02T01:35:26.907Z,12.50
2023-04-02T01:38:04.440Z,13.50
2023-04-02T01:40:39.040Z,12.10
2023-04-02T01:43:16.460Z,11.60
2023-04-02T01:45:45.640Z,13.20
2023-04-02T01:48:19.533Z,14.80
2023-04-02T01:50:52.342Z,13.80
2023-04-02T01:53:25.165Z,14.70
2023-04-02T01:55:56.677Z,13.40
2023-04-02T01:58:33.813Z,11.60
2023-04-02T02:01:05.487Z,13.00
2023-04-02T02:03:35.375Z,10.20
2023-04-02T02:06:06.082Z,11.40
2023-04-02T02:08:39.702Z,10.60
2023-04-02T02:11:15.386Z,12.10
2023-04-02T02:13:48.997Z,10.00
2023-04-02T02:16:19.348Z,10.40
2023-04-02T02:18:51.509Z,13.20
2023-04-02T02:21:30.291Z,11.70
2023-04-02T02:24:00.209Z,10.60
2023-04-02T02:26:33.611Z,11.10
2023-04-02T02:29:06.445Z,10.90
2023-04-02T02:31:37.976Z,10.40
2023-04-02T02:34:17.269Z,10.40
2023-04-02T02:36:52.917Z,11.50
2023-04-02T02:39:25.944Z,9.20
2023-04-02T02:42:00.150Z,10.50
2023-04-02T02:44:36.686Z,11.00
2023-04-02T02:47:11.096Z,9.90
2023-04-02T02:49:43.519Z,8.90
2023-04-02T02:52:18.104Z,9.50
2023-04-02T02:54:50.775Z,9.80
2023-04-02T02:57:23.469Z,8.80
2023-04-02T02:59:55.379Z,9.60
2023-04-02T03:02:26.466Z,9.10
2023-04-02T03:04:57.969Z,9.90
2023-04-02T03:07:29.876Z,8.40
2023-04-02T03:10:07.194Z,9.50
2023-04-02T03:12:45.726Z,8.50
2023-04-02T03:15:22.309Z,9.00
2023-04-02T03:18:03.245Z,7.60
2023-04-02T03:20:38.229Z,8.30
2023-04-02T03:23:19.216Z,7.90
2023-04-02T03:25:56.468Z,7.00
2023-04-02T03:28:28.437Z,6.90
2023-04-02T03:38:36.781Z,6.50
2023-04-02T03:41:15.261Z,6.80
2023-04-02T03:43:48.337Z,6.90
2023-04-02T03:46:27.760Z,7.10
2023-04-02T03:49:00.558Z,7.30
2023-04-02T03:51:33.867Z,8.00
2023-04-02T03:54:03.493Z,7.30
2023-04-02T03:56:39.457Z,8.50
2023-04-02T03:59:17.215Z,8.30
2023-04-02T04:01:58.700Z,8.00
2023-04-02T04:04:33.274Z,7.00
2023-04-02T04:07:05.458Z,8.70
2023-04-02T04:09:37.520Z,8.80
2023-04-02T04:12:20.058Z,8.90
2023-04-02T04:14:55.029Z,8.40
2023-04-02T04:17:34.517Z,8.70
2023-04-02T04:20:15.327Z,9.00
2023-04-02T04:22:44.827Z,9.30
2023-04-02T04:25:22.998Z,8.00
2023-04-02T04:28:05.612Z,7.80
2023-04-02T04:30:55.480Z,8.20
2023-04-02T04:33:41.543Z,7.90
2023-04-02T04:36:29.369Z,6.90
2023-04-02T04:39:10.232Z,7.40
2023-04-02T04:41:41.794Z,6.80
2023-04-02T04:44:19.512Z,6.90
2023-04-02T04:46:57.253Z,6.10
2023-04-02T04:49:33.003Z,5.70
2023-04-02T04:52:09.385Z,6.30
2023-04-02T04:54:40.129Z,5.40
2023-04-02T04:57:23.591Z,6.30
2023-04-02T05:00:01.098Z,4.80
2023-04-02T05:02:36.768Z,5.80
2023-04-02T05:05:17.697Z,4.90
2023-04-02T05:07:51.012Z,5.80
2023-04-02T05:10:25.563Z,6.50
2023-04-02T05:12:58.582Z,5.70
2023-04-02T05:15:32.555Z,6.50
2023-04-02T05:18:15.758Z,6.20
2023-04-02T05:20:54.954Z,6.40
2023-04-02T05:23:27.865Z,6.60
2023-04-02T05:26:04.708Z,6.20
2023-04-02T05:28:48.352Z,5.20
2023-04-02T05:31:22.783Z,5.50
2023-04-02T05:33:55.920Z,6.90
2023-04-02T05:36:28.925Z,5.80
2023-04-02T05:38:59.373Z,6.20
2023-04-02T05:41:31.995Z,6.20
2023-04-02T05:44:09.050Z,7.00
2023-04-02T05:46:44.781Z,6.00
2023-04-02T05:49:22.482Z,6.70
2023-04-02T05:52:05.070Z,7.80
2023-04-02T05:54:38.764Z,7.40
2023-04-02T05:57:14.123Z,6.40
2023-04-02T05:59:47.844Z,6.00
2023-04-02T06:02:24.752Z,5.60
2023-04-02T06:05:00.836Z,5.30
2023-04-02T06:07:33.731Z,5.20
2023-04-02T06:10:10.541Z,4.70
2023-04-02T06:12:49.357Z,4.60
2023-04-02T06:15:21.075Z,4.10
2023-04-02T06:17:58.742Z,4.90
2023-04-02T06:20:28.331Z,4.80
2023-04-02T06:23:00.190Z,4.00
2023-04-02T06:25:31.620Z,4.10
2023-04-02T06:28:04.317Z,4.80
2023-04-02T06:30:37.313Z,5.20
2023-04-02T06:33:07.725Z,5.10
2023-04-02T06:35:39.658Z,4.70
2023-04-02T06:38:17.399Z,5.40
2023-04-02T06:40:52.467Z,3.90
2023-04-02T06:43:32.701Z,4.00
2023-04-02T06:46:07.797Z,4.40
2023-04-02T06:48:39.676Z,4.80
2023-04-02T06:51:11.779Z,4.50
2023-04-02T06:53:44.385Z,3.90
2023-04-02T06:56:26.785Z,4.30
2023-04-02T06:58:55.714Z,3.90
2023-04-02T07:01:28.424Z,4.00
2023-04-02T07:03:58.360Z,3.60
2023-04-02T07:06:27.264Z,3.90
2023-04-02T07:08:56.389Z,4.00
2023-04-02T07:11:25.902Z,3.90
2023-04-02T07:13:55.079Z,3.70
2023-04-02T07:16:26.942Z,3.90
2023-04-02T07:18:58.315Z,3.90
2023-04-02T07:21:28.112Z,4.10
2023-04-02T07:23:57.752Z,4.20
2023-04-02T07:26:28.268Z,4.10
2023-04-02T07:28:57.315Z,4.70
2023-04-02T07:31:28.002Z,5.10
2023-04-02T07:33:59.720Z,4.80
2023-04-02T07:36:29.817Z,5.00
2023-04-02T07:38:59.071Z,3.70
2023-04-02T07:41:28.731Z,5.40
2023-04-02T07:43:57.861Z,5.20
2023-04-02T07:46:26.961Z,5.90
2023-04-02T07:48:56.278Z,4.20
2023-04-02T07:51:26.461Z,6.70
2023-04-02T07:53:56.189Z,6.90
2023-04-02T07:56:27.006Z,5.80
2023-04-02T07:58:56.172Z,6.40
2023-04-02T08:01:26.832Z,7.00
2023-04-02T08:03:57.749Z,7.20
2023-04-02T08:06:27.925Z,6.80
2023-04-02T08:08:59.018Z,7.60
2023-04-02T08:11:29.752Z,7.90
2023-04-02T08:14:01.284Z,8.30
2023-04-02T08:16:45.624Z,6.60
2023-04-02T08:19:16.391Z,7.60
2023-04-02T08:21:45.847Z,7.20
2023-04-02T08:24:15.310Z,7.40
2023-04-02T08:26:45.542Z,8.00
2023-04-02T08:29:15.881Z,7.10
2023-04-02T08:31:45.573Z,8.20
2023-04-02T08:34:15.339Z,7.50
2023-04-02T08:36:46.311Z,7.50
2023-04-02T08:39:15.146Z,6.40
2023-04-02T08:41:50.538Z,6.50
2023-04-02T08:44:44.407Z,5.80
2023-04-02T08:47:15.925Z,6.10
2023-04-02T08:49:52.258Z,5.90
2023-04-02T08:52:25.178Z,6.30
2023-04-02T08:54:56.016Z,5.40
2023-04-02T08:57:34.440Z,5.00
2023-04-02T09:00:23.348Z,5.40
2023-04-02T09:02:58.752Z,5.00
2023-04-02T09:05:32.356Z,5.00
2023-04-02T09:08:05.884Z,4.80
2023-04-02T09:10:46.053Z,4.80
2023-04-02T09:13:24.546Z,5.40
2023-04-02T09:16:14.283Z,5.90
2023-04-02T09:18:46.309Z,5.70
2023-04-02T09:21:36.141Z,6.00
2023-04-02T09:24:07.012Z,5.00
2023-04-02T09:26:36.569Z,4.80
2023-04-02T09:29:25.520Z,5.40
2023-04-02T09:32:02.706Z,4.60
2023-04-02T09:34:33.412Z,5.10
2023-04-02T09:37:09.809Z,3.90
2023-04-02T09:39:38.996Z,4.30
2023-04-02T09:42:29.473Z,4.40
2023-04-02T09:45:16.426Z,4.50
2023-04-02T09:47:45.821Z,3.80
2023-04-02T09:50:33.045Z,4.10
2023-04-02T09:53:30.283Z,4.20
2023-04-02T09:56:14.962Z,3.60
2023-04-02T09:58:45.841Z,4.00
2023-04-02T10:01:31.077Z,3.90
2023-04-02T10:04:00.883Z,3.70
2023-04-02T10:06:32.091Z,3.90
2023-04-02T10:09:26.843Z,3.50
2023-04-02T10:11:58.755Z,3.60
2023-04-02T10:14:31.754Z,3.60
2023-04-02T10:17:08.681Z,4.10
2023-04-02T10:19:40.930Z,3.80
2023-04-02T10:22:16.157Z,3.60
2023-04-02T10:24:47.040Z,4.20
2023-04-02T10:27:26.406Z,4.30
2023-04-02T10:30:19.556Z,4.20
2023-04-02T10:32:56.142Z,3.80
2023-04-02T10:35:38.781Z,3.70
2023-04-02T10:38:29.444Z,3.80
2023-04-02T10:41:03.700Z,3.50
2023-04-02T10:43:44.542Z,4.00
2023-04-02T10:46:24.966Z,3.70
2023-04-02T10:49:04.049Z,3.40
2023-04-02T10:51:40.814Z,3.80
2023-04-02T10:54:27.518Z,2.90
2023-04-02T10:57:11.074Z,3.80
2023-04-02T10:59:44.571Z,3.60
2023-04-02T11:02:31.719Z,3.60
2023-04-02T11:05:08.482Z,3.50
2023-04-02T11:07:50.518Z,3.20
2023-04-02T11:10:21.425Z,3.00
2023-04-02T11:12:56.899Z,2.90
2023-04-02T11:15:26.841Z,3.20
2023-04-02T11:17:56.125Z,3.20
2023-04-02T11:21:00.253Z,3.40
2023-04-02T11:23:31.909Z,3.70
2023-04-02T11:26:34.968Z,3.20
2023-04-02T11:29:27.879Z,3.10
2023-04-02T11:32:29.900Z,2.80
2023-04-02T11:35:24.588Z,3.40
2023-04-02T11:37:54.589Z,3.60
2023-04-02T11:40:48.919Z,3.70
2023-04-02T11:43:52.220Z,3.10
2023-04-02T11:46:41.163Z,4.00
2023-04-02T11:49:37.112Z,3.00
2023-04-02T11:52:20.454Z,3.60
2023-04-02T11:54:57.706Z,3.40
2023-04-02T11:57:47.202Z,3.40
2023-04-02T12:00:30.733Z,2.80
2023-04-02T12:03:16.966Z,3.20
2023-04-02T12:05:54.958Z,2.90
2023-04-02T12:08:44.283Z,3.10
2023-04-02T12:11:31.303Z,3.00
2023-04-02T12:14:08.155Z,3.10
2023-04-02T12:16:40.136Z,3.00
2023-04-02T12:19:15.648Z,2.80
2023-04-02T12:21:47.521Z,2.50
2023-04-02T12:24:22.902Z,3.30
2023-04-02T12:27:14.590Z,2.60
2023-04-02T12:29:43.971Z,2.20
2023-04-02T12:32:25.911Z,2.40
2023-04-02T12:34:58.356Z,2.30
2023-04-02T12:37:31.605Z,2.30
2023-04-02T12:40:06.860Z,2.30
2023-04-02T12:42:37.811Z,2.50
2023-04-02T12:45:24.925Z,2.30
2023-04-02T12:47:55.300Z,2.60
2023-04-02T12:50:24.747Z,2.50
2023-04-02T12:52:58.038Z,2.70
2023-04-02T12:55:28.484Z,2.50
2023-04-02T12:57:59.766Z,3.00
2023-04-02T13:00:39.489Z,3.10
2023-04-02T13:03:21.554Z,3.10
2023-04-02T13:05:55.761Z,3.30
2023-04-02T13:08:29.120Z,2.80
2023-04-02T13:11:01.249Z,2.90
2023-04-02T13:13:34.602Z,3.20
2023-04-02T13:16:07.360Z,3.10
2023-04-02T13:18:38.309Z,3.40
2023-04-02T13:21:27.738Z,3.30
2023-04-02T13:23:57.784Z,4.30
2023-04-02T13:26:29.516Z,4.10
2023-04-02T13:29:00.970Z,3.40
2023-04-02T13:31:31.705Z,3.60
2023-04-02T13:34:02.272Z,3.50
2023-04-02T13:36:32.933Z,3.90
2023-04-02T13:39:03.278Z,3.80
2023-04-02T13:41:35.170Z,3.80
2023-04-02T13:44:05.899Z,4.10
2023-04-02T13:46:36.468Z,4.50
2023-04-02T13:49:10.902Z,4.30
2023-04-02T13:51:44.208Z,4.90
2023-04-02T13:54:35.817Z,4.20
2023-04-02T13:57:06.082Z,4.20
2023-04-02T13:59:35.542Z,4.00
2023-04-02T14:02:11.166Z,4.30
2023-04-02T14:04:50.156Z,5.10
2023-04-02T14:07:35.140Z,4.20
2023-04-02T14:10:17.951Z,4.40
2023-04-02T14:13:02.400Z,4.00
2023-04-02T14:15:47.585Z,3.70
2023-04-02T14:18:39.490Z,4.20
2023-04-02T14:21:22.387Z,4.30
2023-04-02T14:24:06.368Z,4.00
2023-04-02T14:26:46.001Z,5.00
2023-04-02T14:29:23.432Z,5.00
2023-04-02T14:32:03.769Z,4.90
2023-04-02T14:34:41.185Z,3.90
2023-04-02T14:37:20.792Z,4.20
2023-04-02T14:40:04.654Z,4.40
2023-04-02T14:42:41.385Z,5.70
2023-04-02T14:45:21.072Z,7.00
2023-04-02T14:48:00.367Z,5.90
2023-04-02T14:50:34.796Z,5.70
2023-04-02T14:53:13.749Z,6.60
2023-04-02T14:55:52.432Z,11.20
2023-04-02T14:58:27.715Z,9.20
2023-04-02T15:01:03.231Z,10.00
2023-04-02T15:03:46.060Z,9.90
2023-04-02T15:06:22.464Z,11.60
2023-04-02T15:09:08.997Z,12.30
2023-04-02T15:11:44.008Z,14.10
2023-04-02T15:14:19.015Z,11.90
2023-04-02T15:16:48.417Z,14.40
2023-04-02T15:19:20.534Z,12.90
2023-04-02T15:22:10.684Z,12.30
2023-04-02T15:24:48.839Z,10.50
2023-04-02T15:27:28.781Z,9.50
2023-04-02T15:30:09.489Z,9.00
2023-04-02T15:32:42.576Z,9.60
2023-04-02T15:35:23.730Z,8.90
2023-04-02T15:38:01.093Z,6.20
2023-04-02T15:40:50.684Z,7.20
2023-04-02T15:43:25.602Z,7.30
2023-04-02T15:48:57.916Z,8.80
2023-04-02T15:51:47.228Z,8.70
2023-04-02T15:54:37.347Z,9.40
2023-04-02T15:57:20.356Z,10.90
2023-04-02T16:00:22.867Z,11.40
2023-04-02T16:03:18.260Z,11.10
2023-04-02T16:06:02.840Z,11.90
2023-04-02T16:08:46.606Z,12.60
2023-04-02T16:11:20.814Z,10.90
2023-04-02T16:13:54.906Z,10.90
2023-04-02T16:16:30.874Z,10.20
2023-04-02T16:19:15.806Z,9.50
2023-04-02T16:21:55.733Z,8.90
2023-04-02T16:24:25.062Z,9.50
2023-04-02T16:27:02.268Z,9.30
2023-04-02T16:29:55.146Z,8.70
2023-04-02T16:32:48.050Z,8.00
2023-04-02T16:35:42.621Z,9.50
2023-04-02T16:41:08.320Z,9.80
2023-04-02T16:43:54.808Z,10.80
2023-04-02T16:46:39.639Z,10.40
2023-04-02T16:49:24.595Z,9.60
2023-04-02T16:52:09.608Z,8.80
2023-04-02T16:57:39.153Z,9.70
2023-04-02T17:00:23.934Z,10.30
2023-04-02T17:03:12.229Z,10.60
2023-04-02T17:05:55.163Z,11.20
2023-04-02T17:08:27.971Z,11.80
2023-04-02T17:11:03.254Z,13.00
2023-04-02T17:13:42.090Z,14.10
2023-04-02T17:16:21.114Z,11.80
2023-04-02T17:18:59.290Z,11.40
2023-04-02T17:21:36.379Z,14.20
2023-04-02T17:24:18.035Z,14.10
2023-04-02T17:26:53.032Z,14.30
2023-04-02T17:29:33.023Z,14.40
2023-04-02T17:32:06.944Z,15.30
2023-04-02T17:34:37.134Z,13.20
2023-04-02T17:37:19.963Z,12.40
2023-04-02T17:39:59.632Z,13.20
2023-04-02T17:42:47.912Z,14.00
2023-04-02T17:45:27.490Z,13.00
2023-04-02T17:48:04.363Z,12.60
2023-04-02T17:51:10.517Z,12.40
2023-04-02T17:53:56.790Z,13.40
2023-04-02T17:56:49.466Z,13.60
2023-04-02T17:59:38.851Z,12.10
2023-04-02T18:02:27.854Z,15.10
2023-04-02T18:05:11.707Z,12.40
2023-04-02T18:07:54.532Z,15.70
2023-04-02T18:10:39.318Z,15.90
2023-04-02T18:13:24.564Z,15.80
2023-04-02T18:16:11.125Z,13.20
2023-04-02T18:19:03.494Z,14.80
2023-04-02T18:21:42.087Z,15.50
2023-04-02T18:24:34.832Z,12.80
2023-04-02T18:27:32.797Z,13.00
2023-04-02T18:30:20.012Z,10.40
2023-04-02T18:33:12.060Z,11.50
2023-04-02T18:35:52.990Z,9.80
2023-04-02T18:38:38.108Z,10.70
2023-04-02T18:41:28.744Z,10.10
2023-04-02T18:44:10.947Z,10.10
2023-04-02T18:46:50.284Z,10.30
2023-04-02T18:49:29.873Z,10.30
2023-04-02T18:52:12.075Z,10.20
2023-04-02T18:54:47.688Z,7.10
2023-04-02T18:57:23.664Z,6.60
2023-04-02T19:00:07.061Z,6.90
2023-04-02T19:02:49.495Z,5.60
2023-04-02T19:05:27.927Z,4.80
2023-04-02T19:08:05.032Z,5.20
2023-04-02T19:10:43.186Z,4.70
2023-04-02T19:13:21.484Z,5.80
2023-04-02T19:16:10.894Z,5.50
2023-04-02T19:18:56.048Z,5.40
2023-04-02T19:24:16.227Z,3.70
2023-04-02T19:26:57.227Z,3.70
2023-04-02T19:29:46.364Z,4.20
2023-04-02T19:32:24.432Z,3.90
2023-04-02T19:35:06.430Z,3.20
2023-04-02T19:37:42.743Z,4.10
2023-04-02T19:40:28.183Z,3.00
2023-04-02T19:43:00.003Z,2.90
2023-04-02T19:45:36.476Z,3.30
2023-04-02T19:48:18.589Z,2.50
2023-04-02T19:50:53.929Z,1.90
2023-04-02T19:53:26.660Z,1.50
2023-04-02T19:56:02.939Z,2.60
2023-04-02T19:58:35.704Z,2.90
2023-04-02T20:01:07.628Z,2.60
2023-04-02T20:03:43.599Z,3.20
2023-04-02T20:06:15.302Z,3.00
2023-04-02T20:08:47.205Z,3.20
2023-04-02T20:11:22.957Z,3.40
2023-04-02T20:13:55.966Z,3.00
2023-04-02T20:16:28.460Z,3.40
2023-04-02T20:19:03.881Z,3.50
2023-04-02T20:21:41.453Z,3.90
2023-04-02T20:24:12.169Z,3.80
2023-04-02T20:26:45.545Z,3.80
2023-04-02T20:29:16.622Z,3.70
2023-04-02T20:31:47.253Z,4.10
2023-04-02T20:34:18.376Z,3.50
2023-04-02T20:36:48.808Z,3.70
2023-04-02T20:39:23.160Z,4.40
2023-04-02T20:41:52.994Z,3.70
2023-04-02T20:44:23.017Z,4.30
2023-04-02T20:46:54.078Z,4.00
2023-04-02T20:49:24.453Z,4.30
2023-04-02T20:51:53.600Z,4.30
2023-04-02T20:54:23.119Z,4.70
2023-04-02T20:56:52.255Z,4.40
2023-04-02T20:59:22.231Z,4.40
2023-04-02T21:01:51.375Z,4.20
2023-04-02T21:04:21.734Z,3.90
2023-04-02T21:06:56.428Z,4.90
2023-04-02T21:09:25.441Z,4.60
2023-04-02T21:11:54.325Z,4.10
2023-04-02T21:14:23.630Z,4.40
2023-04-02T21:16:52.567Z,4.00
2023-04-02T21:19:21.391Z,4.20
2023-04-02T21:21:50.246Z,3.60
2023-04-02T21:24:19.161Z,4.20
2023-04-02T21:26:48.325Z,3.70
2023-04-02T21:29:17.438Z,3.80
2023-04-02T21:31:46.403Z,3.10
2023-04-02T21:34:17.078Z,3.40
2023-04-02T21:36:48.751Z,3.50
2023-04-02T21:39:20.841Z,3.20
2023-04-02T21:41:51.136Z,3.30
2023-04-02T21:44:21.193Z,3.00
2023-04-02T21:46:52.138Z,3.50
2023-04-02T21:49:23.651Z,2.80
2023-04-02T21:51:52.540Z,2.90
2023-04-02T21:54:22.085Z,2.60
2023-04-02T21:56:51.211Z,3.40
2023-04-02T21:59:20.470Z,3.50
2023-04-02T22:01:51.529Z,3.80
2023-04-02T22:04:22.190Z,3.30
2023-04-02T22:06:52.633Z,3.80
2023-04-02T22:09:23.641Z,2.70
2023-04-02T22:11:54.923Z,2.90
2023-04-02T22:14:24.065Z,3.30
2023-04-02T22:16:53.123Z,3.10
2023-04-02T22:19:22.908Z,3.60
2023-04-02T22:21:53.534Z,3.50
2023-04-02T22:24:22.827Z,3.30
2023-04-02T22:26:52.156Z,2.80
2023-04-02T22:29:21.644Z,2.90
2023-04-02T22:31:50.591Z,3.40
2023-04-02T22:34:20.580Z,2.90
2023-04-02T22:36:49.853Z,2.90
2023-04-02T22:39:18.928Z,2.80
2023-04-02T22:41:52.614Z,2.90
2023-04-02T22:44:21.918Z,3.00
2023-04-02T22:46:51.174Z,2.60
2023-04-02T22:49:20.515Z,3.10
2023-04-02T22:51:49.533Z,3.30
2023-04-02T22:54:18.902Z,2.70
2023-04-02T22:56:47.798Z,2.40
2023-04-02T22:59:18.072Z,2.50
2023-04-02T23:01:47.148Z,2.30
2023-04-02T23:04:16.024Z,2.00
2023-04-02T23:06:45.432Z,2.40
2023-04-02T23:09:14.711Z,2.60
2023-04-02T23:11:44.428Z,2.40
2023-04-02T23:14:13.449Z,2.30
2023-04-02T23:16:43.228Z,2.40
2023-04-02T23:19:12.161Z,2.20
2023-04-02T23:21:41.010Z,2.10
2023-04-02T23:24:12.545Z,2.10
2023-04-02T23:26:41.866Z,3.10
2023-04-02T23:29:12.094Z,2.40
2023-04-02T23:31:41.311Z,2.30
2023-04-02T23:34:11.300Z,1.90
2023-04-02T23:36:40.910Z,2.00
2023-04-02T23:39:13.280Z,1.90
2023-04-02T23:41:43.556Z,1.90
2023-04-02T23:44:14.208Z,2.10
2023-04-02T23:46:43.193Z,2.10
2023-04-02T23:49:13.187Z,2.20
2023-04-02T23:51:42.023Z,2.20
2023-04-02T23:54:12.548Z,2.30
2023-04-02T23:56:41.897Z,1.80
2023-04-02T23:59:11.042Z,2.10
